Home > Products > Valid Products > TAF

000
FTUS45 KREV 011120
TAFRNO
TAF
KRNO 011120Z 0112/0212 VRB03KT P6SM FEW100 SCT200
     FM012200 20007KT P6SM VCSH BKN100 BKN200
     FM020200 28009KT P6SM SCT100 BKN200
     FM020500 VRB03KT P6SM SCT120=



000
FTUS45 KREV 011120
TAFRNO
TAF
KRNO 011120Z 0112/0212 VRB03KT P6SM FEW100 SCT200
     FM012200 20007KT P6SM VCSH BKN100 BKN200
     FM020200 28009KT P6SM SCT100 BKN200
     FM020500 VRB03KT P6SM SCT120=



000
FTUS45 KREV 011120
TAFRNO
TAF
KRNO 011120Z 0112/0212 VRB03KT P6SM FEW100 SCT200
     FM012200 20007KT P6SM VCSH BKN100 BKN200
     FM020200 28009KT P6SM SCT100 BKN200
     FM020500 VRB03KT P6SM SCT120=



000
FTUS45 KREV 011120
TAFRNO
TAF
KRNO 011120Z 0112/0212 VRB03KT P6SM FEW100 SCT200
     FM012200 20007KT P6SM VCSH BKN100 BKN200
     FM020200 28009KT P6SM SCT100 BKN200
     FM020500 VRB03KT P6SM SCT120=



000
FTUS45 KREV 010521
TAFRNO
TAF
KRNO 010521Z 0106/0206 VRB03KT P6SM FEW100 SCT200
     FM011900 14007KT P6SM SCT100 BKN200
     FM012200 20007KT P6SM VCSH BKN100 BKN200
     FM020200 28009KT P6SM SCT100 BKN200=



000
FTUS45 KREV 010521
TAFRNO
TAF
KRNO 010521Z 0106/0206 VRB03KT P6SM FEW100 SCT200
     FM011900 14007KT P6SM SCT100 BKN200
     FM012200 20007KT P6SM VCSH BKN100 BKN200
     FM020200 28009KT P6SM SCT100 BKN200=



000
FTUS45 KREV 010521
TAFRNO
TAF
KRNO 010521Z 0106/0206 VRB03KT P6SM FEW100 SCT200
     FM011900 14007KT P6SM SCT100 BKN200
     FM012200 20007KT P6SM VCSH BKN100 BKN200
     FM020200 28009KT P6SM SCT100 BKN200=



000
FTUS45 KREV 312325
TAFRNO
TAF
KRNO 312325Z 0100/0124 VRB06KT P6SM VCSH SCT100 BKN120 BKN200
     FM010200 30008KT P6SM FEW100 BKN200
     FM010600 VRB03KT P6SM SCT200
     FM012100 22007KT P6SM VCSH BKN120 BKN180=



000
FTUS45 KREV 312325
TAFRNO
TAF
KRNO 312325Z 0100/0124 VRB06KT P6SM VCSH SCT100 BKN120 BKN200
     FM010200 30008KT P6SM FEW100 BKN200
     FM010600 VRB03KT P6SM SCT200
     FM012100 22007KT P6SM VCSH BKN120 BKN180=



000
FTUS45 KREV 312325
TAFRNO
TAF
KRNO 312325Z 0100/0124 VRB06KT P6SM VCSH SCT100 BKN120 BKN200
     FM010200 30008KT P6SM FEW100 BKN200
     FM010600 VRB03KT P6SM SCT200
     FM012100 22007KT P6SM VCSH BKN120 BKN180=



000
FTUS45 KREV 312325
TAFRNO
TAF
KRNO 312325Z 0100/0124 VRB06KT P6SM VCSH SCT100 BKN120 BKN200
     FM010200 30008KT P6SM FEW100 BKN200
     FM010600 VRB03KT P6SM SCT200
     FM012100 22007KT P6SM VCSH BKN120 BKN180=



000
FTUS45 KREV 311728
TAFRNO
TAF
KRNO 311728Z 3118/0118 VRB04KT P6SM BKN150 BKN200
     FM312100 07008KT P6SM SCT100 BKN120 BKN200
     FM010200 30008KT P6SM FEW100 BKN200
     FM010600 VRB03KT P6SM BKN200=



000
FTUS45 KREV 311728
TAFRNO
TAF
KRNO 311728Z 3118/0118 VRB04KT P6SM BKN150 BKN200
     FM312100 07008KT P6SM SCT100 BKN120 BKN200
     FM010200 30008KT P6SM FEW100 BKN200
     FM010600 VRB03KT P6SM BKN200=



000
FTUS45 KREV 311120
TAFRNO
TAF
KRNO 311120Z 3112/0112 VRB04KT P6SM SCT120 BKN200
     FM312100 07008KT P6SM SCT100 BKN200
     FM010200 30008KT P6SM FEW100 BKN200=



000
FTUS45 KREV 310527
TAFRNO
TAF
KRNO 310527Z 3106/0106 VRB04KT P6SM SCT120 BKN200
     FM312100 07008KT P6SM SCT100 BKN200
     FM010200 30008KT P6SM FEW100 BKN200=



000
FTUS45 KREV 310527
TAFRNO
TAF
KRNO 310527Z 3106/0106 VRB04KT P6SM SCT120 BKN200
     FM312100 07008KT P6SM SCT100 BKN200
     FM010200 30008KT P6SM FEW100 BKN200=



000
FTUS45 KREV 302320
TAFRNO
TAF
KRNO 302320Z 3100/3124 07008G15KT P6SM FEW110 SCT150
     FM310300 VRB03KT P6SM FEW150
     FM312100 12006KT P6SM FEW100 SCT140=



000
FTUS45 KREV 302320
TAFRNO
TAF
KRNO 302320Z 3100/3124 07008G15KT P6SM FEW110 SCT150
     FM310300 VRB03KT P6SM FEW150
     FM312100 12006KT P6SM FEW100 SCT140=



000
FTUS45 KREV 301720
TAFRNO
TAF
KRNO 301720Z 3018/3118 VRB04KT P6SM SKC
     FM302100 08007KT P6SM FEW150
     FM310100 35009KT P6SM SCT150
     FM310400 VRB03KT P6SM SCT150=



000
FTUS45 KREV 301720
TAFRNO
TAF
KRNO 301720Z 3018/3118 VRB04KT P6SM SKC
     FM302100 08007KT P6SM FEW150
     FM310100 35009KT P6SM SCT150
     FM310400 VRB03KT P6SM SCT150=



000
FTUS45 KREV 301720
TAFRNO
TAF
KRNO 301720Z 3018/3118 VRB04KT P6SM SKC
     FM302100 08007KT P6SM FEW150
     FM310100 35009KT P6SM SCT150
     FM310400 VRB03KT P6SM SCT150=



000
FTUS45 KREV 301720
TAFRNO
TAF
KRNO 301720Z 3018/3118 VRB04KT P6SM SKC
     FM302100 08007KT P6SM FEW150
     FM310100 35009KT P6SM SCT150
     FM310400 VRB03KT P6SM SCT150=



000
FTUS45 KREV 301120
TAFRNO
TAF
KRNO 301120Z 3012/3112 VRB04KT P6SM SKC
     FM302100 08007KT P6SM FEW150
     FM310100 35009KT P6SM SCT150
     FM310400 VRB03KT P6SM SCT150=



000
FTUS45 KREV 301120
TAFRNO
TAF
KRNO 301120Z 3012/3112 VRB04KT P6SM SKC
     FM302100 08007KT P6SM FEW150
     FM310100 35009KT P6SM SCT150
     FM310400 VRB03KT P6SM SCT150=



000
FTUS45 KREV 300531
TAFRNO
TAF
KRNO 300531Z 3006/3106 VRB04KT P6SM SKC
     FM302100 08009KT P6SM FEW150
     FM310100 32009KT P6SM FEW080 SCT150
     FM310400 30006KT P6SM SCT080 SCT150=



000
FTUS45 KREV 300531
TAFRNO
TAF
KRNO 300531Z 3006/3106 VRB04KT P6SM SKC
     FM302100 08009KT P6SM FEW150
     FM310100 32009KT P6SM FEW080 SCT150
     FM310400 30006KT P6SM SCT080 SCT150=



000
FTUS45 KREV 300531
TAFRNO
TAF
KRNO 300531Z 3006/3106 VRB04KT P6SM SKC
     FM302100 08009KT P6SM FEW150
     FM310100 32009KT P6SM FEW080 SCT150
     FM310400 30006KT P6SM SCT080 SCT150=



000
FTUS45 KREV 300531
TAFRNO
TAF
KRNO 300531Z 3006/3106 VRB04KT P6SM SKC
     FM302100 08009KT P6SM FEW150
     FM310100 32009KT P6SM FEW080 SCT150
     FM310400 30006KT P6SM SCT080 SCT150=



000
FTUS45 KREV 292320
TAFRNO
TAF
KRNO 292320Z 3000/3024 08006KT P6SM SKC
     FM300200 VRB04KT P6SM SKC
     FM302100 10010KT P6SM FEW150=



000
FTUS45 KREV 292320
TAFRNO
TAF
KRNO 292320Z 3000/3024 08006KT P6SM SKC
     FM300200 VRB04KT P6SM SKC
     FM302100 10010KT P6SM FEW150=



000
FTUS45 KREV 291720
TAFRNO
TAF
KRNO 291720Z 2918/3018 08006KT P6SM SKC
     FM300200 VRB04KT P6SM SKC=



000
FTUS45 KREV 291720
TAFRNO
TAF
KRNO 291720Z 2918/3018 08006KT P6SM SKC
     FM300200 VRB04KT P6SM SKC=



000
FTUS45 KREV 291720
TAFRNO
TAF
KRNO 291720Z 2918/3018 08006KT P6SM SKC
     FM300200 VRB04KT P6SM SKC=



000
FTUS45 KREV 291720
TAFRNO
TAF
KRNO 291720Z 2918/3018 08006KT P6SM SKC
     FM300200 VRB04KT P6SM SKC=



    US Dept of Commerce
    National Oceanic and Atmospheric Administration
    National Weather Service
    1325 East West Highway
    Silver Spring, MD 20910
    Page Author: NWS Internet Services Team
Disclaimer
Information Quality
Credits
Glossary
Privacy Policy
Freedom of Information Act (FOIA)
About Us
Career Opportunities